createdAt,value
2018-07-25T00:00:02.192Z,99849.03
2018-07-25T00:02:30.492Z,99852.79
2018-07-25T00:04:58.613Z,99851.16
2018-07-25T00:07:26.810Z,99845.47
2018-07-25T00:09:57.141Z,99848.55
2018-07-25T00:12:25.783Z,99855.50
2018-07-25T00:14:53.982Z,99857.20
2018-07-25T00:21:41.986Z,99854.51
2018-07-25T00:24:10.109Z,99853.66
2018-07-25T00:26:38.257Z,99857.66
2018-07-25T00:29:06.358Z,99850.34
2018-07-25T00:31:34.448Z,99855.52
2018-07-25T00:34:02.802Z,99862.74
2018-07-25T00:36:31.080Z,99859.82
2018-07-25T00:38:59.306Z,99849.73
2018-07-25T00:41:28.016Z,99856.98
2018-07-25T00:43:56.167Z,99857.22
2018-07-25T00:46:24.406Z,99858.28
2018-07-25T00:48:53.395Z,99856.55
2018-07-25T00:51:21.555Z,99859.55
2018-07-25T00:53:49.656Z,99861.13
2018-07-25T00:56:17.777Z,99853.80
2018-07-25T00:58:45.849Z,99858.48
2018-07-25T01:01:13.990Z,99861.92
2018-07-25T01:03:42.105Z,99868.36
2018-07-25T01:06:10.219Z,99867.34
2018-07-25T01:08:38.517Z,99876.78
2018-07-25T01:11:06.609Z,99869.27
2018-07-25T01:13:34.723Z,99872.09
2018-07-25T01:16:02.829Z,99867.50
2018-07-25T01:18:30.975Z,99879.37
2018-07-25T01:20:59.082Z,99868.92
2018-07-25T01:23:27.223Z,99866.20
2018-07-25T01:25:55.324Z,99864.53
2018-07-25T01:28:23.580Z,99867.62
2018-07-25T01:30:52.438Z,99870.45
2018-07-25T01:33:20.613Z,99872.92
2018-07-25T01:35:48.731Z,99871.02
2018-07-25T01:38:16.924Z,99866.94
2018-07-25T01:40:45.615Z,99870.25
2018-07-25T01:43:13.972Z,99876.30
2018-07-25T01:45:42.098Z,99877.45
2018-07-25T01:48:10.300Z,99880.06
2018-07-25T01:50:38.570Z,99874.35
2018-07-25T01:53:06.770Z,99870.28
2018-07-25T01:55:34.971Z,99872.08
2018-07-25T01:58:03.676Z,99874.33
2018-07-25T02:00:31.825Z,99874.44
2018-07-25T02:02:59.946Z,99882.77
2018-07-25T02:05:28.099Z,99873.84
2018-07-25T02:07:56.239Z,99877.78
2018-07-25T02:10:24.795Z,99872.94
2018-07-25T02:12:53.979Z,99873.77
2018-07-25T02:15:22.614Z,99874.34
2018-07-25T02:17:50.828Z,99872.05
2018-07-25T02:20:18.993Z,99878.50
2018-07-25T02:22:47.124Z,99878.84
2018-07-25T02:25:15.282Z,99882.57
2018-07-25T02:27:43.528Z,99881.01
2018-07-25T02:30:11.664Z,99880.09
2018-07-25T02:32:39.804Z,99883.02
2018-07-25T02:35:07.908Z,99876.88
2018-07-25T02:37:36.032Z,99885.22
2018-07-25T02:40:04.172Z,99886.62
2018-07-25T02:42:32.628Z,99883.34
2018-07-25T02:45:00.721Z,99887.37
2018-07-25T02:47:28.828Z,99893.67
2018-07-25T02:49:56.983Z,99888.52
2018-07-25T02:52:25.311Z,99897.42
2018-07-25T02:54:53.892Z,99892.73
2018-07-25T02:57:21.988Z,99890.94
2018-07-25T02:59:50.071Z,99897.73
2018-07-25T03:02:18.315Z,99899.97
2018-07-25T03:04:46.528Z,99904.76
2018-07-25T03:07:14.616Z,99899.95
2018-07-25T03:09:42.724Z,99909.09
2018-07-25T03:12:10.880Z,99905.33
2018-07-25T03:14:38.992Z,99908.41
2018-07-25T03:17:07.386Z,99911.47
2018-07-25T03:19:35.458Z,99911.20
2018-07-25T03:22:03.717Z,99908.08
2018-07-25T03:24:31.831Z,99912.40
2018-07-25T03:26:59.931Z,99920.81
2018-07-25T03:29:28.212Z,99922.00
2018-07-25T03:31:56.367Z,99927.75
2018-07-25T03:34:24.591Z,99927.06
2018-07-25T03:36:52.691Z,99928.41
2018-07-25T03:39:20.930Z,99924.98
2018-07-25T03:41:49.038Z,99926.59
2018-07-25T03:44:17.196Z,99931.19
2018-07-25T03:46:45.651Z,99928.45
2018-07-25T03:49:13.873Z,99930.97
2018-07-25T03:51:42.086Z,99937.19
2018-07-25T03:54:10.389Z,99931.56
2018-07-25T03:56:38.546Z,99938.04
2018-07-25T03:59:06.720Z,99943.61
2018-07-25T04:01:34.849Z,99937.32
2018-07-25T04:04:03.074Z,99936.75
2018-07-25T04:06:31.228Z,99946.95
2018-07-25T04:08:59.367Z,99950.19
2018-07-25T04:11:27.887Z,99948.63
2018-07-25T04:13:56.031Z,99944.38
2018-07-25T04:16:24.466Z,99954.53
2018-07-25T04:18:52.570Z,99953.47
2018-07-25T04:21:20.641Z,99957.08
2018-07-25T04:23:48.752Z,99954.91
2018-07-25T04:26:16.838Z,99957.38
2018-07-25T04:28:45.338Z,99957.79
2018-07-25T04:31:13.481Z,99950.52
2018-07-25T04:33:41.623Z,99957.38
2018-07-25T04:36:10.038Z,99956.49
2018-07-25T04:38:38.259Z,99958.33
2018-07-25T04:41:06.441Z,99965.86
2018-07-25T04:43:34.559Z,99966.67
2018-07-25T04:46:02.843Z,99965.09
2018-07-25T04:48:30.960Z,99966.17
2018-07-25T04:50:59.048Z,99968.77
2018-07-25T04:53:27.273Z,99969.97
2018-07-25T04:55:55.430Z,99974.44
2018-07-25T04:58:24.796Z,99973.52
2018-07-25T05:00:52.912Z,99973.35
2018-07-25T05:03:21.049Z,99973.34
2018-07-25T05:05:49.175Z,99979.89
2018-07-25T05:08:17.682Z,99978.07
2018-07-25T05:10:45.766Z,99976.25
2018-07-25T05:13:13.898Z,99979.33
2018-07-25T05:15:42.018Z,99980.33
2018-07-25T05:18:10.142Z,99985.75
2018-07-25T05:20:38.550Z,99980.28
2018-07-25T05:23:06.732Z,99983.38
2018-07-25T05:25:34.875Z,99989.67
2018-07-25T05:28:03.054Z,99991.37
2018-07-25T05:30:31.177Z,99990.03
2018-07-25T05:32:59.547Z,99985.45
2018-07-25T05:35:34.053Z,99996.27
2018-07-25T05:38:02.155Z,99995.51
2018-07-25T05:40:30.265Z,99998.97
2018-07-25T05:42:58.333Z,99998.16
2018-07-25T05:45:26.438Z,100000.11
2018-07-25T05:47:54.728Z,100000.98
2018-07-25T05:50:22.909Z,100009.25
2018-07-25T05:52:51.004Z,100010.57
2018-07-25T05:55:19.073Z,100017.41
2018-07-25T05:57:47.145Z,100016.84
2018-07-25T06:00:15.213Z,100018.22
2018-07-25T06:02:43.388Z,100019.98
2018-07-25T06:05:11.447Z,100014.30
2018-07-25T06:07:39.565Z,100017.67
2018-07-25T06:10:07.738Z,100009.47
2018-07-25T06:12:35.892Z,100010.67
2018-07-25T06:15:04.350Z,100015.99
2018-07-25T06:17:32.616Z,100013.63
2018-07-25T06:20:01.818Z,100015.07
2018-07-25T06:22:30.024Z,100018.17
2018-07-25T06:24:58.930Z,100018.97
2018-07-25T06:27:27.374Z,100016.56
2018-07-25T06:29:55.603Z,100016.71
2018-07-25T06:32:23.865Z,100013.45
2018-07-25T06:34:52.049Z,100019.28
2018-07-25T06:37:20.156Z,100011.20
2018-07-25T06:39:48.523Z,100017.19
2018-07-25T06:42:16.875Z,100019.75
2018-07-25T06:44:44.999Z,100024.47
2018-07-25T06:47:13.317Z,100021.30
2018-07-25T06:49:41.461Z,100026.32
2018-07-25T06:52:09.740Z,100026.52
2018-07-25T06:54:37.899Z,100034.08
2018-07-25T06:57:06.065Z,100033.44
2018-07-25T06:59:35.189Z,100031.03
2018-07-25T07:02:03.419Z,100031.20
2018-07-25T07:04:31.535Z,100033.25
2018-07-25T07:07:00.269Z,100034.91
2018-07-25T07:09:28.544Z,100036.53
2018-07-25T07:11:56.719Z,100040.03
2018-07-25T07:14:25.490Z,100044.06
2018-07-25T07:16:53.617Z,100048.08
2018-07-25T07:19:21.796Z,100043.47
2018-07-25T07:21:50.160Z,100048.56
2018-07-25T07:24:18.322Z,100052.30
2018-07-25T07:26:46.733Z,100044.34
2018-07-25T07:29:14.891Z,100047.27
2018-07-25T07:31:43.094Z,100047.63
2018-07-25T07:34:11.357Z,100045.25
2018-07-25T07:36:39.512Z,100043.06
2018-07-25T07:39:10.075Z,100041.20
2018-07-25T07:41:38.274Z,100044.58
2018-07-25T07:44:06.572Z,100039.92
2018-07-25T07:46:34.702Z,100041.69
2018-07-25T07:49:03.201Z,100045.36
2018-07-25T07:51:31.792Z,100040.70
2018-07-25T07:54:00.118Z,100035.27
2018-07-25T07:56:28.517Z,100041.52
2018-07-25T07:58:56.990Z,100038.56
2018-07-25T08:01:25.382Z,100041.35
2018-07-25T08:03:53.569Z,100040.44
2018-07-25T08:06:22.054Z,100037.73
2018-07-25T08:08:50.827Z,100035.20
2018-07-25T08:11:21.332Z,100039.12
2018-07-25T08:14:06.328Z,100040.10
2018-07-25T08:16:41.508Z,100040.75
2018-07-25T08:19:10.393Z,100041.33
2018-07-25T08:21:38.602Z,100033.55
2018-07-25T08:24:07.809Z,100033.74
2018-07-25T08:26:36.155Z,100038.62
2018-07-25T08:29:04.342Z,100041.94
2018-07-25T08:31:32.565Z,100038.58
2018-07-25T08:34:00.814Z,100039.56
2018-07-25T08:36:29.091Z,100032.50
2018-07-25T08:38:57.243Z,100031.27
2018-07-25T08:41:30.958Z,100029.77
2018-07-25T08:43:59.292Z,100034.95
2018-07-25T08:46:27.494Z,100034.38
2018-07-25T08:48:55.585Z,100032.81
2018-07-25T08:51:23.779Z,100037.16
2018-07-25T08:53:52.153Z,100034.71
2018-07-25T08:56:20.890Z,100029.02
2018-07-25T08:58:49.022Z,100031.24
2018-07-25T09:01:17.139Z,100032.23
2018-07-25T09:03:45.533Z,100029.12
2018-07-25T09:06:13.769Z,100032.28
2018-07-25T09:08:41.965Z,100032.46
2018-07-25T09:11:10.074Z,100031.30
2018-07-25T09:13:38.181Z,100037.90
2018-07-25T09:16:06.423Z,100031.39
2018-07-25T09:18:34.595Z,100035.00
2018-07-25T09:21:02.756Z,100033.37
2018-07-25T09:23:30.944Z,100036.33
2018-07-25T09:25:59.067Z,100040.32
2018-07-25T09:28:27.289Z,100041.51
2018-07-25T09:30:55.892Z,100036.16
2018-07-25T09:33:24.135Z,100031.42
2018-07-25T09:35:52.273Z,100035.53
2018-07-25T09:38:20.398Z,100034.08
2018-07-25T09:40:48.562Z,100030.91
2018-07-25T09:43:16.867Z,100036.80
2018-07-25T09:45:45.233Z,100030.37
2018-07-25T09:48:13.714Z,100026.14
2018-07-25T09:50:41.858Z,100023.50
2018-07-25T09:53:10.014Z,100022.47
2018-07-25T09:55:38.162Z,100014.67
2018-07-25T09:58:06.527Z,100017.63
2018-07-25T10:00:39.919Z,100016.31
2018-07-25T10:03:08.040Z,100018.83
2018-07-25T10:05:36.176Z,100006.73
2018-07-25T10:08:04.398Z,100007.14
2018-07-25T10:10:32.549Z,100009.36
2018-07-25T10:13:00.727Z,100003.72
2018-07-25T10:15:28.972Z,100008.56
2018-07-25T10:17:57.319Z,99999.16
2018-07-25T10:20:26.087Z,99998.33
2018-07-25T10:22:54.337Z,99994.09
2018-07-25T10:25:22.536Z,99997.93
2018-07-25T10:27:50.687Z,99992.27
2018-07-25T10:30:18.858Z,99983.56
2018-07-25T10:32:47.096Z,99982.53
2018-07-25T10:35:15.278Z,99984.81
2018-07-25T10:37:43.451Z,99978.66
2018-07-25T10:40:11.530Z,99979.38
2018-07-25T10:42:39.674Z,99975.14
2018-07-25T10:45:09.454Z,99968.05
2018-07-25T10:47:37.676Z,99966.50
2018-07-25T10:50:06.318Z,99967.92
2018-07-25T10:52:34.547Z,99955.30
2018-07-25T10:55:02.798Z,99953.27
2018-07-25T10:57:31.263Z,99955.71
2018-07-25T10:59:59.515Z,99962.55
2018-07-25T11:02:27.759Z,99958.11
2018-07-25T11:04:56.532Z,99963.80
2018-07-25T11:07:24.913Z,99962.48
2018-07-25T11:09:53.263Z,99962.86
2018-07-25T11:12:21.515Z,99960.30
2018-07-25T11:14:49.913Z,99955.50
2018-07-25T11:17:18.291Z,99954.83
2018-07-25T11:22:52.923Z,99950.39
2018-07-25T11:25:21.710Z,99950.85
2018-07-25T11:27:50.211Z,99949.23
2018-07-25T11:30:18.643Z,99939.69
2018-07-25T11:32:46.995Z,99940.23
2018-07-25T11:35:16.001Z,99939.27
2018-07-25T11:37:44.131Z,99934.30
2018-07-25T11:40:12.370Z,99932.59
2018-07-25T11:42:40.693Z,99933.02
2018-07-25T11:45:09.023Z,99924.00
2018-07-25T11:47:37.313Z,99926.96
2018-07-25T11:50:06.356Z,99921.34
2018-07-25T11:52:34.892Z,99923.56
2018-07-25T11:55:03.245Z,99921.62
2018-07-25T11:57:31.395Z,99917.21
2018-07-25T11:59:59.970Z,99914.03
2018-07-25T12:02:28.358Z,99916.92
2018-07-25T12:04:56.806Z,99905.09
2018-07-25T12:07:25.239Z,99900.53
2018-07-25T12:09:53.592Z,99898.31
2018-07-25T12:12:21.917Z,99895.28
2018-07-25T12:14:50.306Z,99906.46
2018-07-25T12:17:18.885Z,99902.47
2018-07-25T12:19:47.880Z,99893.86
2018-07-25T12:22:16.380Z,99903.78
2018-07-25T12:24:44.926Z,99898.28
2018-07-25T12:27:13.497Z,99897.94
2018-07-25T12:29:41.926Z,99891.76
2018-07-25T12:32:10.064Z,99891.70
2018-07-25T12:34:38.204Z,99880.47
2018-07-25T12:37:06.375Z,99882.99
2018-07-25T12:39:36.736Z,99879.39
2018-07-25T12:42:14.061Z,99876.91
2018-07-25T12:44:50.498Z,99871.91
2018-07-25T12:47:18.723Z,99859.61
2018-07-25T12:49:46.847Z,99865.48
2018-07-25T12:52:15.148Z,99858.69
2018-07-25T12:54:45.053Z,99864.06
2018-07-25T12:57:13.134Z,99862.81
2018-07-25T12:59:41.397Z,99856.59
2018-07-25T13:02:09.611Z,99856.34
2018-07-25T13:04:37.811Z,99853.67
2018-07-25T13:07:06.027Z,99855.00
2018-07-25T13:09:35.082Z,99847.86
2018-07-25T13:12:03.237Z,99846.36
2018-07-25T13:14:31.450Z,99846.88
2018-07-25T13:16:59.568Z,99843.41
2018-07-25T13:19:30.887Z,99849.83
2018-07-25T13:21:58.995Z,99847.77
2018-07-25T13:24:27.190Z,99841.10
2018-07-25T13:26:55.366Z,99832.01
2018-07-25T13:29:23.576Z,99844.12
2018-07-25T13:31:51.862Z,99840.27
2018-07-25T13:34:20.013Z,99833.67
2018-07-25T13:36:48.081Z,99830.97
2018-07-25T13:39:16.482Z,99833.39
2018-07-25T13:41:44.635Z,99837.36
2018-07-25T13:44:12.971Z,99840.09
2018-07-25T13:46:41.235Z,99837.16
2018-07-25T13:49:09.571Z,99835.05
2018-07-25T13:51:37.775Z,99835.94
2018-07-25T13:54:06.188Z,99835.47
2018-07-25T13:56:34.282Z,99824.08
2018-07-25T13:59:02.466Z,99824.58
2018-07-25T14:01:30.610Z,99818.77
2018-07-25T14:03:59.550Z,99826.02
2018-07-25T14:06:27.810Z,99822.98
2018-07-25T14:08:56.454Z,99824.89
2018-07-25T14:11:25.713Z,99829.02
2018-07-25T14:13:54.603Z,99828.68
2018-07-25T14:16:23.271Z,99829.45
2018-07-25T14:18:52.334Z,99827.61
2018-07-25T14:21:20.505Z,99826.67
2018-07-25T14:23:49.057Z,99819.76
2018-07-25T14:26:21.088Z,99817.67
2018-07-25T14:28:49.483Z,99818.77
2018-07-25T14:31:17.793Z,99813.36
2018-07-25T14:33:46.680Z,99814.66
2018-07-25T14:36:16.591Z,99812.52
2018-07-25T14:38:45.079Z,99811.36
2018-07-25T14:41:13.632Z,99806.47
2018-07-25T14:43:41.835Z,99810.05
2018-07-25T14:46:10.206Z,99804.14
2018-07-25T14:48:38.405Z,99797.38
2018-07-25T14:51:06.676Z,99792.91
2018-07-25T14:53:34.786Z,99793.70
2018-07-25T14:56:02.968Z,99789.94
2018-07-25T14:58:31.118Z,99786.10
2018-07-25T15:00:59.514Z,99789.73
2018-07-25T15:03:28.442Z,99791.12
2018-07-25T15:05:57.635Z,99789.42
2018-07-25T15:08:25.939Z,99785.27
2018-07-25T15:10:54.059Z,99788.58
2018-07-25T15:13:22.334Z,99779.06
2018-07-25T15:15:50.698Z,99779.03
2018-07-25T15:18:18.927Z,99770.42
2018-07-25T15:20:47.390Z,99775.99
2018-07-25T15:23:26.046Z,99770.67
2018-07-25T15:25:54.492Z,99773.98
2018-07-25T15:28:23.002Z,99761.05
2018-07-25T15:30:51.976Z,99768.96
2018-07-25T15:33:20.152Z,99766.80
2018-07-25T15:35:48.716Z,99757.45
2018-07-25T15:38:17.267Z,99769.34
2018-07-25T15:40:45.549Z,99765.71
2018-07-25T15:43:13.658Z,99768.20
2018-07-25T15:45:41.747Z,99770.58
2018-07-25T15:48:09.833Z,99770.83
2018-07-25T15:50:38.053Z,99770.41
2018-07-25T15:53:06.088Z,99767.38
2018-07-25T15:55:34.296Z,99770.24
2018-07-25T15:58:02.354Z,99775.56
2018-07-25T16:00:30.477Z,99768.77
2018-07-25T16:02:58.604Z,99769.94
2018-07-25T16:05:29.126Z,99766.34
2018-07-25T16:07:57.757Z,99769.87
2018-07-25T16:10:26.113Z,99774.50
2018-07-25T16:12:54.304Z,99765.68
2018-07-25T16:15:22.485Z,99764.56
2018-07-25T16:17:50.739Z,99775.85
2018-07-25T16:20:18.906Z,99781.67
2018-07-25T16:22:47.313Z,99780.72
2018-07-25T16:25:15.692Z,99786.07
2018-07-25T16:27:44.055Z,99788.56
2018-07-25T16:30:13.653Z,99781.12
2018-07-25T16:32:42.348Z,99782.94
2018-07-25T16:35:10.617Z,99777.83
2018-07-25T16:37:39.223Z,99784.83
2018-07-25T16:40:07.342Z,99782.65
2018-07-25T16:42:35.602Z,99788.27
2018-07-25T16:45:03.842Z,99797.03
2018-07-25T16:47:31.962Z,99788.38
2018-07-25T16:50:00.090Z,99793.73
2018-07-25T16:52:28.446Z,99789.78
2018-07-25T16:54:56.666Z,99788.00
2018-07-25T16:57:24.883Z,99788.55
2018-07-25T16:59:53.158Z,99784.40
2018-07-25T17:02:21.414Z,99779.70
2018-07-25T17:04:49.505Z,99778.42
2018-07-25T17:07:17.649Z,99781.52
2018-07-25T17:09:45.837Z,99781.18
2018-07-25T17:12:13.951Z,99784.30
2018-07-25T17:14:42.148Z,99777.20
2018-07-25T17:17:10.234Z,99778.97
2018-07-25T17:19:39.404Z,99778.94
2018-07-25T17:22:07.668Z,99781.97
2018-07-25T17:24:35.841Z,99787.20
2018-07-25T17:27:04.327Z,99788.02
2018-07-25T17:29:32.682Z,99790.25
2018-07-25T17:32:01.097Z,99789.20
2018-07-25T17:34:29.512Z,99791.27
2018-07-25T17:36:57.702Z,99794.56
2018-07-25T17:39:27.117Z,99795.67
2018-07-25T17:41:54.005Z,99797.95
2018-07-25T17:44:22.418Z,99810.28
2018-07-25T17:46:50.944Z,99805.64
2018-07-25T17:49:19.109Z,99824.77
2018-07-25T17:51:47.326Z,99841.14
2018-07-25T17:54:15.550Z,99840.00
2018-07-25T17:56:43.651Z,99850.20
2018-07-25T17:59:11.910Z,99850.23
2018-07-25T18:01:42.274Z,99851.28
2018-07-25T18:04:10.422Z,99856.09
2018-07-25T18:06:38.697Z,99859.79
2018-07-25T18:09:08.310Z,99860.74
2018-07-25T18:11:38.408Z,99865.76
2018-07-25T18:14:11.265Z,99866.27
2018-07-25T18:16:39.770Z,99865.03
2018-07-25T18:19:10.981Z,99867.27
2018-07-25T18:21:39.363Z,99859.59
2018-07-25T18:24:07.570Z,99869.60
2018-07-25T18:26:35.778Z,99869.66
2018-07-25T18:29:04.087Z,99873.28
2018-07-25T18:31:32.187Z,99875.77
2018-07-25T18:34:00.398Z,99874.55
2018-07-25T18:36:28.562Z,99874.36
2018-07-25T18:38:56.755Z,99876.59
2018-07-25T18:41:25.002Z,99887.78
2018-07-25T18:43:53.134Z,99887.00
2018-07-25T18:46:21.550Z,99892.49
2018-07-25T18:48:50.646Z,99882.79
2018-07-25T18:51:19.552Z,99896.70
2018-07-25T18:53:47.730Z,99886.52
2018-07-25T18:56:15.956Z,99888.59
2018-07-25T18:58:44.057Z,99884.97
2018-07-25T19:01:12.482Z,99880.51
2018-07-25T19:03:40.675Z,99874.39
2018-07-25T19:06:08.826Z,99871.62
2018-07-25T19:08:37.134Z,99879.81
2018-07-25T19:11:05.338Z,99875.56
2018-07-25T19:13:33.492Z,99879.73
2018-07-25T19:16:01.994Z,99882.86
2018-07-25T19:18:30.214Z,99882.06
2018-07-25T19:20:58.594Z,99883.14
2018-07-25T19:23:26.779Z,99888.47
2018-07-25T19:25:55.213Z,99889.94
2018-07-25T19:28:23.557Z,99890.86
2018-07-25T19:30:51.697Z,99896.23
2018-07-25T19:33:19.826Z,99894.50
2018-07-25T19:35:48.166Z,99903.41
2018-07-25T19:38:16.355Z,99909.84
2018-07-25T19:40:44.449Z,99904.36
2018-07-25T19:43:12.758Z,99903.83
2018-07-25T19:45:41.005Z,99907.66
2018-07-25T19:48:09.099Z,99906.15
2018-07-25T19:50:37.216Z,99905.15
2018-07-25T19:53:05.590Z,99915.28
2018-07-25T19:55:33.785Z,99913.81
2018-07-25T19:58:01.875Z,99904.38
2018-07-25T20:00:29.983Z,99915.98
2018-07-25T20:02:59.034Z,99918.41
2018-07-25T20:05:27.404Z,99918.84
2018-07-25T20:07:55.502Z,99924.80
2018-07-25T20:10:23.674Z,99919.52
2018-07-25T20:12:51.816Z,99914.95
2018-07-25T20:15:25.270Z,99927.40
2018-07-25T20:17:53.392Z,99921.22
2018-07-25T20:20:21.500Z,99922.93
2018-07-25T20:22:49.650Z,99922.70
2018-07-25T20:25:18.813Z,99924.33
2018-07-25T20:27:46.958Z,99929.63
2018-07-25T20:30:15.350Z,99934.05
2018-07-25T20:32:43.724Z,99937.39
2018-07-25T20:35:12.848Z,99941.44
2018-07-25T20:37:41.097Z,99940.34
2018-07-25T20:40:09.668Z,99946.40
2018-07-25T20:42:38.029Z,99945.33
2018-07-25T20:45:06.939Z,99945.45
2018-07-25T20:47:35.453Z,99945.05
2018-07-25T20:50:03.885Z,99947.39
2018-07-25T20:52:33.515Z,99955.95
2018-07-25T20:55:02.615Z,99948.65
2018-07-25T20:57:30.831Z,99951.81
2018-07-25T20:59:59.267Z,99952.41
2018-07-25T21:02:27.500Z,99945.97
2018-07-25T21:04:55.642Z,99953.16
2018-07-25T21:07:23.802Z,99953.58
2018-07-25T21:09:52.012Z,99950.11
2018-07-25T21:12:20.482Z,99953.55
2018-07-25T21:14:48.965Z,99957.48
2018-07-25T21:17:17.318Z,99952.09
2018-07-25T21:19:46.154Z,99956.09
2018-07-25T21:22:14.579Z,99949.90
2018-07-25T21:24:42.813Z,99948.48
2018-07-25T21:27:11.344Z,99952.75
2018-07-25T21:29:39.539Z,99955.05
2018-07-25T21:32:07.942Z,99961.73
2018-07-25T21:34:36.275Z,99955.95
2018-07-25T21:37:04.470Z,99964.63
2018-07-25T21:39:32.626Z,99965.57
2018-07-25T21:42:00.830Z,99971.23
2018-07-25T21:44:29.010Z,99971.52
2018-07-25T21:46:57.294Z,99972.03
2018-07-25T21:49:25.614Z,99976.55
2018-07-25T21:51:53.734Z,99979.36
2018-07-25T21:54:22.179Z,99975.58
2018-07-25T21:56:50.374Z,99974.31
2018-07-25T22:01:59.927Z,99977.73
2018-07-25T22:04:28.034Z,99979.27
2018-07-25T22:06:56.363Z,99978.09
2018-07-25T22:09:24.469Z,99976.89
2018-07-25T22:11:52.630Z,99973.28
2018-07-25T22:14:20.750Z,99970.50
2018-07-25T22:16:49.221Z,99973.70
2018-07-25T22:19:17.370Z,99979.84
2018-07-25T22:21:45.610Z,99984.11
2018-07-25T22:24:14.711Z,99984.63
2018-07-25T22:26:42.923Z,99984.48
2018-07-25T22:29:11.035Z,99981.69
2018-07-25T22:31:39.122Z,99974.80
2018-07-25T22:34:07.424Z,99983.66
2018-07-25T22:36:36.543Z,99979.44
2018-07-25T22:39:07.402Z,99970.91
2018-07-25T22:41:35.527Z,99974.70
2018-07-25T22:44:04.391Z,99972.25
2018-07-25T22:46:32.730Z,99979.19
2018-07-25T22:49:01.372Z,99975.54
2018-07-25T22:51:29.494Z,99978.03
2018-07-25T22:53:57.623Z,99973.62
2018-07-25T22:56:25.726Z,99978.49
2018-07-25T22:58:53.839Z,99976.20
2018-07-25T23:01:21.962Z,99975.20
2018-07-25T23:03:50.221Z,99982.02
2018-07-25T23:06:18.338Z,99975.28
2018-07-25T23:08:47.273Z,99972.95
2018-07-25T23:11:15.771Z,99970.44
2018-07-25T23:13:45.852Z,99967.48
2018-07-25T23:16:15.705Z,99966.17
2018-07-25T23:18:44.010Z,99964.08
2018-07-25T23:21:12.135Z,99961.92
2018-07-25T23:23:40.291Z,99968.36
2018-07-25T23:26:08.554Z,99963.11
2018-07-25T23:28:36.698Z,99963.91
2018-07-25T23:31:04.806Z,99962.23
2018-07-25T23:33:32.951Z,99969.57
2018-07-25T23:36:01.082Z,99968.32
2018-07-25T23:38:29.295Z,99967.80
2018-07-25T23:40:57.375Z,99966.72
2018-07-25T23:43:25.573Z,99964.50
2018-07-25T23:45:53.769Z,99963.09
2018-07-25T23:48:21.881Z,99960.52
2018-07-25T23:50:49.966Z,99964.92
2018-07-25T23:53:18.074Z,99962.30
2018-07-25T23:55:46.373Z,99959.01
2018-07-25T23:58:15.162Z,99953.30
